createdAt,value
2019-03-28T00:01:12.756Z,13.65
2019-03-28T00:03:41.484Z,13.50
2019-03-28T00:06:10.389Z,11.75
2019-03-28T00:08:39.319Z,11.97
2019-03-28T00:11:08.133Z,12.07
2019-03-28T00:13:36.959Z,11.80
2019-03-28T00:16:05.837Z,12.78
2019-03-28T00:18:34.665Z,12.30
2019-03-28T00:21:03.579Z,11.97
2019-03-28T00:23:34.030Z,10.72
2019-03-28T00:26:03.292Z,13.05
2019-03-28T00:28:32.343Z,11.20
2019-03-28T00:31:01.258Z,12.35
2019-03-28T00:33:31.115Z,11.50
2019-03-28T00:35:59.953Z,10.90
2019-03-28T00:38:28.803Z,11.12
2019-03-28T00:40:57.674Z,11.93
2019-03-28T00:43:26.493Z,11.28
2019-03-28T00:45:57.735Z,11.40
2019-03-28T00:48:27.143Z,11.93
2019-03-28T00:50:56.133Z,12.65
2019-03-28T00:53:24.958Z,11.73
2019-03-28T00:55:53.815Z,10.58
2019-03-28T00:58:22.746Z,10.48
2019-03-28T01:00:51.622Z,11.10
2019-03-28T01:03:20.567Z,11.25
2019-03-28T01:05:49.417Z,12.23
2019-03-28T01:08:18.254Z,11.75
2019-03-28T01:10:47.246Z,12.45
2019-03-28T01:13:16.330Z,11.05
2019-03-28T01:15:45.119Z,11.40
2019-03-28T01:18:13.935Z,12.28
2019-03-28T01:20:42.778Z,12.58
2019-03-28T01:23:11.650Z,11.70
2019-03-28T01:25:40.543Z,12.70
2019-03-28T01:28:09.345Z,11.80
2019-03-28T01:30:38.182Z,12.13
2019-03-28T01:33:06.974Z,10.98
2019-03-28T01:35:35.858Z,11.70
2019-03-28T01:38:04.747Z,11.53
2019-03-28T01:40:34.095Z,11.33
2019-03-28T01:43:02.997Z,11.35
2019-03-28T01:45:31.843Z,11.75
2019-03-28T01:48:00.670Z,12.40
2019-03-28T01:50:29.558Z,12.63
2019-03-28T01:52:58.391Z,14.25
2019-03-28T01:55:28.203Z,14.13
2019-03-28T01:57:57.399Z,13.80
2019-03-28T02:00:26.305Z,15.08
2019-03-28T02:02:55.054Z,15.23
2019-03-28T02:05:23.901Z,15.80
2019-03-28T02:07:52.729Z,15.88
2019-03-28T02:10:21.658Z,16.32
2019-03-28T02:12:50.502Z,18.35
2019-03-28T02:15:19.340Z,18.25
2019-03-28T02:17:48.201Z,19.50
2019-03-28T02:20:17.175Z,21.23
2019-03-28T02:22:46.021Z,23.73
2019-03-28T02:25:14.834Z,24.87
2019-03-28T02:27:43.648Z,25.88
2019-03-28T02:30:12.855Z,26.70
2019-03-28T02:32:42.062Z,25.68
2019-03-28T02:35:11.020Z,22.70
2019-03-28T02:37:39.731Z,24.07
2019-03-28T02:40:08.543Z,23.77
2019-03-28T02:42:37.338Z,23.62
2019-03-28T02:45:07.572Z,24.30
2019-03-28T02:47:36.514Z,22.93
2019-03-28T02:50:07.242Z,24.20
2019-03-28T02:52:36.455Z,24.55
2019-03-28T02:55:07.858Z,24.55
2019-03-28T02:57:41.523Z,24.15
2019-03-28T03:00:07.815Z,25.95
2019-03-28T03:02:36.706Z,25.27
2019-03-28T03:05:07.869Z,24.85
2019-03-28T03:07:36.673Z,25.17
2019-03-28T03:10:09.889Z,24.27
2019-03-28T03:12:38.798Z,26.73
2019-03-28T03:15:08.524Z,24.32
2019-03-28T03:17:37.446Z,26.10
2019-03-28T03:20:08.296Z,25.88
2019-03-28T03:22:37.284Z,24.87
2019-03-28T03:25:08.030Z,25.35
2019-03-28T03:27:37.329Z,25.02
2019-03-28T03:30:11.285Z,25.02
2019-03-28T03:32:40.106Z,26.02
2019-03-28T03:35:09.517Z,24.18
2019-03-28T03:37:38.404Z,24.43
2019-03-28T03:40:10.724Z,24.37
2019-03-28T03:42:39.589Z,24.35
2019-03-28T03:45:09.627Z,22.77
2019-03-28T03:47:38.722Z,22.45
2019-03-28T03:50:08.375Z,24.02
2019-03-28T03:52:38.393Z,22.27
2019-03-28T03:55:08.411Z,22.45
2019-03-28T03:57:37.299Z,22.75
2019-03-28T04:00:08.692Z,21.42
2019-03-28T04:02:37.544Z,21.48
2019-03-28T04:05:07.115Z,22.62
2019-03-28T04:07:35.917Z,22.15
2019-03-28T04:10:06.127Z,22.10
2019-03-28T04:12:34.971Z,22.67
2019-03-28T04:15:04.185Z,22.30
2019-03-28T04:17:33.018Z,22.37
2019-03-28T04:20:01.825Z,22.82
2019-03-28T04:22:30.627Z,23.73
2019-03-28T04:24:59.429Z,22.85
2019-03-28T04:27:28.217Z,24.52
2019-03-28T04:29:57.092Z,22.22
2019-03-28T04:32:25.901Z,24.30
2019-03-28T04:34:54.738Z,23.92
2019-03-28T04:37:23.574Z,24.47
2019-03-28T04:39:52.399Z,25.27
2019-03-28T04:42:21.238Z,25.35
2019-03-28T04:44:50.069Z,24.18
2019-03-28T04:47:18.883Z,26.57
2019-03-28T04:49:47.699Z,25.70
2019-03-28T04:52:16.491Z,25.85
2019-03-28T04:54:45.408Z,26.27
2019-03-28T04:57:14.223Z,27.70
2019-03-28T04:59:43.016Z,26.35
2019-03-28T05:02:11.774Z,27.35
2019-03-28T05:04:40.748Z,27.95
2019-03-28T05:07:09.606Z,26.85
2019-03-28T05:09:38.262Z,26.73
2019-03-28T05:12:07.117Z,28.62
2019-03-28T05:14:35.925Z,27.93
2019-03-28T05:17:04.747Z,26.57
2019-03-28T05:19:33.582Z,26.57
2019-03-28T05:22:02.371Z,27.80
2019-03-28T05:24:31.215Z,28.65
2019-03-28T05:27:00.115Z,27.15
2019-03-28T05:29:28.889Z,28.05
2019-03-28T05:31:57.679Z,28.90
2019-03-28T05:34:26.481Z,28.75
2019-03-28T05:36:55.384Z,28.92
2019-03-28T05:39:24.199Z,28.92
2019-03-28T05:41:53.042Z,29.32
2019-03-28T05:44:21.783Z,29.72
2019-03-28T05:46:50.548Z,31.10
2019-03-28T05:49:19.399Z,31.25
2019-03-28T05:51:48.195Z,31.48
2019-03-28T05:54:17.051Z,29.25
2019-03-28T05:56:45.875Z,29.25
2019-03-28T05:59:14.673Z,30.25
2019-03-28T06:01:43.465Z,31.25
2019-03-28T06:04:12.282Z,30.68
2019-03-28T06:06:41.174Z,31.20
2019-03-28T06:09:10.090Z,31.17
2019-03-28T06:11:39.031Z,30.10
2019-03-28T06:14:07.856Z,31.87
2019-03-28T06:16:36.725Z,32.17
2019-03-28T06:19:05.568Z,32.03
2019-03-28T06:21:34.382Z,31.75
2019-03-28T06:24:03.478Z,32.60
2019-03-28T06:26:32.357Z,33.02
2019-03-28T06:29:01.839Z,34.60
2019-03-28T06:31:30.651Z,33.48
2019-03-28T06:34:00.453Z,31.95
2019-03-28T06:36:29.417Z,34.10
2019-03-28T06:39:17.652Z,33.55
2019-03-28T06:41:46.511Z,33.50
2019-03-28T06:44:15.327Z,34.13
2019-03-28T06:46:44.071Z,33.10
2019-03-28T06:49:12.997Z,34.20
2019-03-28T06:51:41.881Z,32.73
2019-03-28T06:54:10.815Z,32.35
2019-03-28T06:56:39.610Z,32.20
2019-03-28T06:59:08.336Z,34.35
2019-03-28T07:01:39.787Z,32.67
2019-03-28T07:04:08.590Z,33.73
2019-03-28T07:06:37.470Z,34.23
2019-03-28T07:09:08.581Z,33.40
2019-03-28T07:11:37.447Z,34.48
2019-03-28T07:14:06.322Z,33.00
2019-03-28T07:16:35.058Z,33.78
2019-03-28T07:19:03.869Z,30.43
2019-03-28T07:21:32.713Z,28.10
2019-03-28T07:24:01.668Z,29.27
2019-03-28T07:26:30.465Z,28.50
2019-03-28T07:28:59.486Z,28.25
2019-03-28T07:31:28.543Z,30.17
2019-03-28T07:33:57.402Z,33.30
2019-03-28T07:36:26.254Z,29.48
2019-03-28T07:38:55.058Z,28.30
2019-03-28T07:41:23.901Z,29.37
2019-03-28T07:43:52.708Z,29.52
2019-03-28T07:46:21.583Z,27.27
2019-03-28T07:48:50.414Z,29.35
2019-03-28T07:51:19.160Z,31.02
2019-03-28T07:53:48.100Z,31.25
2019-03-28T07:56:16.825Z,29.40
2019-03-28T07:58:45.702Z,29.70
2019-03-28T08:01:16.655Z,29.65
2019-03-28T08:03:45.946Z,31.45
2019-03-28T08:06:14.933Z,30.17
2019-03-28T08:08:44.290Z,30.75
2019-03-28T08:11:13.341Z,30.65
2019-03-28T08:13:42.267Z,31.02
2019-03-28T08:16:11.121Z,29.80
2019-03-28T08:18:39.953Z,30.88
2019-03-28T08:21:08.792Z,30.68
2019-03-28T08:23:37.585Z,29.02
2019-03-28T08:26:06.463Z,28.02
2019-03-28T08:28:36.843Z,27.42
2019-03-28T08:31:05.703Z,27.62
2019-03-28T08:33:36.796Z,26.35
2019-03-28T08:36:06.673Z,25.17
2019-03-28T08:38:38.936Z,23.47
2019-03-28T08:41:07.762Z,21.23
2019-03-28T08:43:36.572Z,19.65
2019-03-28T08:46:08.637Z,21.68
2019-03-28T08:48:36.073Z,21.12
2019-03-28T08:51:05.026Z,21.00
2019-03-28T08:53:33.849Z,21.77
2019-03-28T08:56:02.708Z,21.52
2019-03-28T08:58:31.580Z,22.48
2019-03-28T09:01:00.453Z,24.18
2019-03-28T09:03:29.331Z,22.80
2019-03-28T09:05:58.238Z,28.52
2019-03-28T09:08:27.067Z,20.82
2019-03-28T09:10:55.897Z,20.60
2019-03-28T09:13:24.795Z,19.73
2019-03-28T09:15:53.630Z,20.55
2019-03-28T09:18:22.515Z,18.45
2019-03-28T09:20:51.413Z,19.42
2019-03-28T09:23:20.201Z,18.52
2019-03-28T09:25:49.080Z,20.35
2019-03-28T09:28:17.976Z,20.10
2019-03-28T09:30:49.379Z,19.75
2019-03-28T09:33:17.242Z,22.52
2019-03-28T09:35:46.274Z,21.55
2019-03-28T09:38:15.333Z,21.30
2019-03-28T09:40:44.175Z,22.55
2019-03-28T09:43:12.978Z,20.68
2019-03-28T09:45:41.957Z,22.30
2019-03-28T09:48:11.806Z,20.17
2019-03-28T09:50:41.171Z,19.10
2019-03-28T09:53:09.968Z,21.70
2019-03-28T09:55:38.816Z,18.27
2019-03-28T09:58:08.329Z,18.45
2019-03-28T10:00:38.631Z,18.45
2019-03-28T10:03:07.648Z,20.12
2019-03-28T10:05:38.241Z,24.77
2019-03-28T10:08:06.980Z,28.38
2019-03-28T10:10:35.946Z,28.10
2019-03-28T10:13:04.717Z,25.85
2019-03-28T10:15:36.783Z,24.65
2019-03-28T10:18:04.187Z,24.43
2019-03-28T10:20:33.156Z,22.40
2019-03-28T10:23:02.129Z,23.18
2019-03-28T10:25:31.071Z,23.83
2019-03-28T10:28:00.040Z,23.52
2019-03-28T10:30:40.379Z,23.07
2019-03-28T10:33:09.418Z,22.05
2019-03-28T10:35:38.338Z,20.90
2019-03-28T10:38:07.222Z,21.57
2019-03-28T10:40:36.472Z,22.13
2019-03-28T10:43:06.224Z,19.87
2019-03-28T10:45:35.136Z,18.87
2019-03-28T10:48:03.972Z,19.90
2019-03-28T10:50:40.878Z,20.45
2019-03-28T10:53:03.480Z,20.72
2019-03-28T10:55:33.145Z,20.80
2019-03-28T10:58:17.172Z,18.12
2019-03-28T11:00:34.090Z,17.12
2019-03-28T11:03:04.774Z,12.18
2019-03-28T11:05:33.967Z,14.83
2019-03-28T11:08:06.020Z,14.45
2019-03-28T11:10:34.969Z,13.78
2019-03-28T11:13:09.282Z,14.70
2019-03-28T11:15:36.807Z,12.18
2019-03-28T11:18:05.812Z,15.60
2019-03-28T11:20:39.488Z,13.60
2019-03-28T11:23:05.318Z,13.55
2019-03-28T11:25:34.899Z,13.72
2019-03-28T11:28:06.194Z,14.10
2019-03-28T11:30:35.561Z,13.68
2019-03-28T11:33:06.433Z,13.78
2019-03-28T11:35:35.311Z,13.78
2019-03-28T11:38:05.497Z,14.30
2019-03-28T11:40:34.997Z,12.70
2019-03-28T11:43:04.449Z,12.45
2019-03-28T11:45:34.094Z,11.55
2019-03-28T11:48:03.063Z,9.80
2019-03-28T11:50:32.267Z,10.80
2019-03-28T11:53:01.112Z,11.33
2019-03-28T11:55:32.087Z,12.05
2019-03-28T11:58:00.662Z,12.00
2019-03-28T12:00:35.679Z,11.70
2019-03-28T12:03:04.694Z,11.80
2019-03-28T12:05:37.244Z,12.43
2019-03-28T12:08:06.233Z,12.18
2019-03-28T12:10:35.965Z,11.55
2019-03-28T12:13:04.940Z,12.13
2019-03-28T12:15:33.852Z,13.70
2019-03-28T12:18:04.227Z,13.90
2019-03-28T12:20:33.239Z,13.65
2019-03-28T12:23:04.268Z,15.08
2019-03-28T12:25:34.521Z,11.80
2019-03-28T12:28:03.884Z,13.55
2019-03-28T12:30:32.902Z,12.98
2019-03-28T12:33:04.536Z,11.65
2019-03-28T12:35:34.048Z,11.10
2019-03-28T12:38:03.642Z,12.00
2019-03-28T12:40:34.192Z,11.85
2019-03-28T12:43:09.081Z,9.80
2019-03-28T12:45:39.052Z,11.53
2019-03-28T12:48:09.066Z,13.70
2019-03-28T12:50:53.334Z,22.75
2019-03-28T12:53:20.115Z,11.97
2019-03-28T12:55:39.980Z,11.97
2019-03-28T12:58:09.360Z,11.43
2019-03-28T13:00:38.995Z,11.85
2019-03-28T13:03:08.015Z,9.48
2019-03-28T13:05:39.130Z,10.90
2019-03-28T13:08:14.078Z,11.30
2019-03-28T13:10:44.622Z,9.50
2019-03-28T13:13:13.555Z,7.67
2019-03-28T13:15:47.121Z,9.00
2019-03-28T13:18:15.943Z,10.55
2019-03-28T13:20:45.267Z,11.20
2019-03-28T13:23:14.209Z,11.12
2019-03-28T13:25:43.244Z,13.50
2019-03-28T13:28:13.291Z,13.68
2019-03-28T13:30:43.806Z,14.73
2019-03-28T13:33:12.653Z,14.55
2019-03-28T13:35:44.619Z,13.18
2019-03-28T13:38:17.937Z,11.70
2019-03-28T13:40:46.821Z,10.72
2019-03-28T13:43:15.667Z,10.93
2019-03-28T13:45:44.646Z,12.18
2019-03-28T13:48:14.898Z,10.88
2019-03-28T13:50:43.841Z,9.98
2019-03-28T13:53:12.747Z,8.70
2019-03-28T13:55:41.685Z,9.20
2019-03-28T13:58:11.620Z,9.45
2019-03-28T14:00:40.579Z,9.60
2019-03-28T14:03:09.429Z,9.30
2019-03-28T14:05:38.246Z,8.58
2019-03-28T14:08:08.915Z,10.72
2019-03-28T14:10:39.360Z,9.08
2019-03-28T14:13:10.030Z,10.20
2019-03-28T14:15:43.296Z,13.08
2019-03-28T14:18:12.388Z,13.88
2019-03-28T14:20:43.156Z,15.45
2019-03-28T14:23:12.010Z,15.55
2019-03-28T14:25:40.967Z,13.78
2019-03-28T14:28:11.434Z,15.05
2019-03-28T14:30:41.025Z,15.83
2019-03-28T14:33:12.066Z,15.68
2019-03-28T14:35:43.120Z,15.30
2019-03-28T14:38:12.034Z,14.63
2019-03-28T14:40:42.995Z,14.70
2019-03-28T14:43:11.714Z,14.73
2019-03-28T14:45:42.084Z,15.18
2019-03-28T14:48:14.109Z,15.85
2019-03-28T14:50:44.108Z,16.40
2019-03-28T14:53:13.000Z,15.13
2019-03-28T14:55:42.103Z,15.60
2019-03-28T14:58:11.063Z,17.00
2019-03-28T15:00:46.725Z,16.73
2019-03-28T15:03:25.626Z,15.83
2019-03-28T15:05:48.843Z,16.05
2019-03-28T15:08:18.106Z,15.75
2019-03-28T15:10:49.825Z,15.63
2019-03-28T15:13:21.126Z,15.65
2019-03-28T15:15:50.975Z,15.05
2019-03-28T15:18:19.939Z,15.53
2019-03-28T15:20:48.775Z,15.55
2019-03-28T15:23:18.790Z,16.00
2019-03-28T15:25:47.784Z,18.40
2019-03-28T15:28:19.543Z,16.50
2019-03-28T15:30:49.714Z,14.55
2019-03-28T15:33:18.919Z,13.43
2019-03-28T15:35:47.756Z,14.13
2019-03-28T15:38:16.726Z,13.70
2019-03-28T15:40:47.580Z,16.48
2019-03-28T15:43:18.062Z,12.75
2019-03-28T15:45:46.967Z,13.72
2019-03-28T15:48:15.895Z,13.18
2019-03-28T15:50:46.384Z,14.00
2019-03-28T15:53:15.363Z,12.23
2019-03-28T15:55:44.263Z,11.33
2019-03-28T15:58:23.297Z,12.50
2019-03-28T16:00:43.718Z,13.32
2019-03-28T16:03:12.848Z,11.68
2019-03-28T16:05:42.576Z,16.15
2019-03-28T16:08:11.536Z,16.40
2019-03-28T16:10:40.449Z,16.20
2019-03-28T16:13:09.399Z,15.68
2019-03-28T16:15:38.433Z,13.55
2019-03-28T16:18:07.423Z,19.37
2019-03-28T16:20:36.220Z,15.65
2019-03-28T16:23:08.182Z,14.90
2019-03-28T16:25:38.665Z,20.15
2019-03-28T16:28:07.624Z,19.52
2019-03-28T16:30:38.398Z,15.32
2019-03-28T16:33:07.530Z,18.10
2019-03-28T16:35:36.454Z,12.25
2019-03-28T16:38:05.307Z,13.62
2019-03-28T16:40:55.512Z,14.20
2019-03-28T16:43:25.819Z,13.72
2019-03-28T16:45:55.106Z,14.58
2019-03-28T16:48:23.962Z,15.93
2019-03-28T16:50:54.089Z,16.48
2019-03-28T16:53:23.520Z,15.58
2019-03-28T16:55:52.470Z,14.98
2019-03-28T16:58:21.332Z,14.40
2019-03-28T17:00:50.673Z,14.30
2019-03-28T17:03:19.615Z,13.48
2019-03-28T17:05:48.543Z,14.10
2019-03-28T17:08:17.780Z,13.58
2019-03-28T17:10:52.131Z,14.43
2019-03-28T17:13:20.904Z,14.90
2019-03-28T17:15:51.684Z,13.40
2019-03-28T17:18:20.317Z,13.43
2019-03-28T17:20:49.922Z,14.55
2019-03-28T17:23:18.957Z,13.48
2019-03-28T17:25:49.198Z,14.15
2019-03-28T17:28:18.103Z,14.73
2019-03-28T17:30:46.938Z,15.90
2019-03-28T17:33:17.762Z,15.35
2019-03-28T17:35:46.408Z,15.35
2019-03-28T17:38:16.354Z,16.87
2019-03-28T17:40:45.219Z,18.98
2019-03-28T17:43:16.258Z,14.00
2019-03-28T17:45:45.151Z,14.78
2019-03-28T17:48:14.028Z,19.80
2019-03-28T17:50:45.262Z,14.95
2019-03-28T17:53:15.981Z,12.75
2019-03-28T17:55:45.160Z,13.93
2019-03-28T17:58:16.325Z,14.75
2019-03-28T18:00:46.545Z,14.23
2019-03-28T18:03:16.189Z,12.53
2019-03-28T18:05:57.518Z,12.20
2019-03-28T18:08:17.189Z,12.43
2019-03-28T18:10:46.241Z,13.30
2019-03-28T18:13:15.155Z,11.75
2019-03-28T18:15:44.192Z,11.85
2019-03-28T18:18:14.503Z,12.00
2019-03-28T18:20:43.485Z,11.68
2019-03-28T18:23:12.442Z,12.55
2019-03-28T18:25:42.417Z,12.65
2019-03-28T18:28:12.246Z,13.78
2019-03-28T18:30:43.133Z,16.80
2019-03-28T18:33:15.624Z,14.85
2019-03-28T18:35:48.966Z,12.63
2019-03-28T18:41:12.717Z,15.68
2019-03-28T18:46:46.461Z,15.13
2019-03-28T18:49:18.320Z,12.93
2019-03-28T18:51:52.713Z,12.07
2019-03-28T18:54:21.805Z,12.73
2019-03-28T18:56:58.254Z,11.22
2019-03-28T18:59:34.092Z,12.55
2019-03-28T19:02:24.754Z,16.10
2019-03-28T19:04:57.681Z,13.78
2019-03-28T19:07:28.350Z,13.32
2019-03-28T19:09:59.105Z,13.83
2019-03-28T19:12:39.651Z,12.37
2019-03-28T19:15:16.649Z,15.60
2019-03-28T19:17:48.952Z,16.23
2019-03-28T19:20:33.096Z,16.95
2019-03-28T19:23:07.560Z,21.57
2019-03-28T19:25:41.157Z,16.85
2019-03-28T19:28:29.606Z,13.80
2019-03-28T19:30:58.613Z,15.15
2019-03-28T19:33:32.378Z,13.60
2019-03-28T19:36:03.324Z,14.03
2019-03-28T19:38:35.262Z,14.90
2019-03-28T19:41:05.893Z,19.32
2019-03-28T19:43:34.886Z,19.32
2019-03-28T19:46:03.995Z,23.32
2019-03-28T19:48:34.166Z,18.35
2019-03-28T19:51:03.065Z,17.05
2019-03-28T19:53:35.124Z,18.55
2019-03-28T19:56:02.601Z,16.50
2019-03-28T19:58:34.972Z,16.75
2019-03-28T20:04:06.507Z,19.35
2019-03-28T20:09:24.449Z,17.52
2019-03-28T20:14:41.787Z,17.45
2019-03-28T20:17:13.761Z,18.62
2019-03-28T20:19:43.134Z,22.27
2019-03-28T20:22:30.776Z,19.42
2019-03-28T20:25:22.570Z,25.10
2019-03-28T20:30:40.806Z,21.30
2019-03-28T20:33:26.637Z,18.55
2019-03-28T20:39:24.948Z,18.98
2019-03-28T20:41:58.377Z,18.77
2019-03-28T20:50:11.107Z,20.75
2019-03-28T20:59:02.017Z,20.23
2019-03-28T21:01:50.704Z,20.90
2019-03-28T21:04:32.082Z,20.30
2019-03-28T21:09:57.892Z,18.05
2019-03-28T21:13:20.660Z,18.27
2019-03-28T21:15:45.950Z,17.73
2019-03-28T21:21:23.395Z,20.35
2019-03-28T21:23:52.297Z,19.27
2019-03-28T21:26:21.257Z,22.60
2019-03-28T21:28:51.271Z,25.68
2019-03-28T21:31:20.623Z,25.52
2019-03-28T21:33:54.926Z,19.75
2019-03-28T21:36:29.837Z,23.07
2019-03-28T21:38:54.273Z,27.02
2019-03-28T21:41:23.209Z,20.75
2019-03-28T21:43:52.907Z,18.55
2019-03-28T21:46:23.286Z,19.35
2019-03-28T21:48:52.185Z,22.00
2019-03-28T21:54:10.583Z,21.10
2019-03-28T21:56:41.443Z,20.60
2019-03-28T21:59:11.708Z,28.60
2019-03-28T22:01:43.318Z,27.27
2019-03-28T22:04:13.444Z,27.80
2019-03-28T22:06:43.500Z,29.15
2019-03-28T22:09:16.699Z,32.30
2019-03-28T22:11:45.540Z,25.82
2019-03-28T22:14:15.545Z,28.73
2019-03-28T22:16:44.490Z,26.93
2019-03-28T22:19:13.404Z,24.18
2019-03-28T22:21:45.316Z,26.50
2019-03-28T22:24:14.179Z,24.00
2019-03-28T22:26:45.918Z,26.73
2019-03-28T22:29:13.713Z,23.30
2019-03-28T22:31:43.976Z,24.55
2019-03-28T22:34:12.834Z,24.00
2019-03-28T22:36:41.758Z,24.30
2019-03-28T22:39:10.596Z,25.00
2019-03-28T22:41:39.451Z,24.67
2019-03-28T22:44:08.264Z,24.32
2019-03-28T22:46:39.776Z,25.48
2019-03-28T22:49:08.479Z,25.32
2019-03-28T22:51:37.558Z,26.60
2019-03-28T22:54:07.128Z,27.42
2019-03-28T22:56:38.053Z,47.83
2019-03-28T22:59:08.209Z,29.45
2019-03-28T23:01:37.036Z,29.40
2019-03-28T23:04:05.980Z,28.65
2019-03-28T23:06:34.853Z,29.20
2019-03-28T23:09:04.491Z,29.75
2019-03-28T23:11:33.337Z,28.55
2019-03-28T23:14:04.474Z,29.02
2019-03-28T23:16:51.573Z,28.10
2019-03-28T23:19:20.511Z,27.48
2019-03-28T23:21:49.284Z,28.85
2019-03-28T23:24:18.107Z,28.55
2019-03-28T23:26:46.975Z,29.27
2019-03-28T23:29:15.785Z,28.00
2019-03-28T23:31:44.610Z,28.38
2019-03-28T23:34:13.439Z,27.62
2019-03-28T23:36:42.214Z,29.07
2019-03-28T23:39:11.179Z,27.02
2019-03-28T23:41:40.577Z,27.45
2019-03-28T23:44:09.435Z,30.52
2019-03-28T23:46:39.203Z,30.17
2019-03-28T23:49:08.068Z,30.75
2019-03-28T23:51:36.894Z,31.17
2019-03-28T23:54:05.673Z,30.12
2019-03-28T23:56:34.531Z,31.12
2019-03-28T23:59:03.343Z,33.95
